sensor_id;sensor_type;location;lat;lon;timestamp;pressure;altitude;pressure_sealevel;temperature;humidity
44349;BME280;30068;50.986;4.564;2023-07-13T00:00:05;101495.06;;;26.97;45.13
44349;BME280;30068;50.986;4.564;2023-07-13T00:02:34;101492.31;;;26.97;45.15
44349;BME280;30068;50.986;4.564;2023-07-13T00:05:00;101490.63;;;26.96;45.13
44349;BME280;30068;50.986;4.564;2023-07-13T00:07:25;101489.78;;;26.96;45.27
44349;BME280;30068;50.986;4.564;2023-07-13T00:09:51;101487.06;;;26.96;45.16
44349;BME280;30068;50.986;4.564;2023-07-13T00:12:35;101493.63;;;26.95;45.39
44349;BME280;30068;50.986;4.564;2023-07-13T00:15:03;101490.03;;;26.94;45.01
44349;BME280;30068;50.986;4.564;2023-07-13T00:17:29;101487.28;;;26.94;45.27
44349;BME280;30068;50.986;4.564;2023-07-13T00:19:55;101487.28;;;26.94;45.29
44349;BME280;30068;50.986;4.564;2023-07-13T00:22:21;101493.81;;;26.93;45.24
44349;BME280;30068;50.986;4.564;2023-07-13T00:24:46;101480.13;;;26.93;45.48
44349;BME280;30068;50.986;4.564;2023-07-13T00:27:12;101483.06;;;26.92;45.45
44349;BME280;30068;50.986;4.564;2023-07-13T00:29:37;101487.72;;;26.91;45.38
44349;BME280;30068;50.986;4.564;2023-07-13T00:32:03;101491.50;;;26.90;45.58
44349;BME280;30068;50.986;4.564;2023-07-13T00:34:29;101493.19;;;26.91;45.48
44349;BME280;30068;50.986;4.564;2023-07-13T00:36:54;101507.94;;;26.90;45.59
44349;BME280;30068;50.986;4.564;2023-07-13T00:39:19;101501.84;;;26.88;45.39
44349;BME280;30068;50.986;4.564;2023-07-13T00:41:46;101505.63;;;26.87;45.73
44349;BME280;30068;50.986;4.564;2023-07-13T00:44:14;101507.31;;;26.88;45.44
44349;BME280;30068;50.986;4.564;2023-07-13T00:46:40;101503.72;;;26.88;45.35
44349;BME280;30068;50.986;4.564;2023-07-13T00:49:06;101501.19;;;26.86;45.53
44349;BME280;30068;50.986;4.564;2023-07-13T00:51:35;101502.25;;;26.85;45.62
44349;BME280;30068;50.986;4.564;2023-07-13T00:54:03;101502.25;;;26.85;45.72
44349;BME280;30068;50.986;4.564;2023-07-13T00:56:29;101499.50;;;26.85;45.62
44349;BME280;30068;50.986;4.564;2023-07-13T00:58:56;101510.47;;;26.85;45.63
44349;BME280;30068;50.986;4.564;2023-07-13T01:01:22;101513.41;;;26.84;45.39
44349;BME280;30068;50.986;4.564;2023-07-13T01:03:47;101516.16;;;26.84;45.61
44349;BME280;30068;50.986;4.564;2023-07-13T01:06:12;101517.00;;;26.84;45.78
44349;BME280;30068;50.986;4.564;2023-07-13T01:08:38;101513.63;;;26.82;45.75
44349;BME280;30068;50.986;4.564;2023-07-13T01:11:05;101516.38;;;26.82;45.65
44349;BME280;30068;50.986;4.564;2023-07-13T01:13:30;101518.28;;;26.82;45.72
44349;BME280;30068;50.986;4.564;2023-07-13T01:15:56;101513.88;;;26.81;45.74
44349;BME280;30068;50.986;4.564;2023-07-13T01:18:24;101517.44;;;26.81;45.92
44349;BME280;30068;50.986;4.564;2023-07-13T01:20:51;101527.56;;;26.81;45.80
44349;BME280;30068;50.986;4.564;2023-07-13T01:23:16;101533.25;;;26.79;45.66
44349;BME280;30068;50.986;4.564;2023-07-13T01:25:42;101519.56;;;26.79;45.70
44349;BME280;30068;50.986;4.564;2023-07-13T01:28:07;101534.94;;;26.80;45.85
44349;BME280;30068;50.986;4.564;2023-07-13T01:30:36;101533.25;;;26.79;45.92
44349;BME280;30068;50.986;4.564;2023-07-13T01:33:03;101533.47;;;26.78;45.65
44349;BME280;30068;50.986;4.564;2023-07-13T01:35:29;101531.56;;;26.78;46.12
44349;BME280;30068;50.986;4.564;2023-07-13T01:37:54;101525.44;;;26.76;46.12
44349;BME280;30068;50.986;4.564;2023-07-13T01:40:20;101543.56;;;26.77;46.15
44349;BME280;30068;50.986;4.564;2023-07-13T01:42:45;101539.13;;;26.76;46.09
44349;BME280;30068;50.986;4.564;2023-07-13T01:45:10;101537.47;;;26.75;46.12
44349;BME280;30068;50.986;4.564;2023-07-13T01:47:36;101537.47;;;26.75;46.23
44349;BME280;30068;50.986;4.564;2023-07-13T01:50:01;101544.00;;;26.74;46.19
44349;BME280;30068;50.986;4.564;2023-07-13T01:52:26;101546.75;;;26.74;46.07
44349;BME280;30068;50.986;4.564;2023-07-13T01:54:51;101541.28;;;26.74;46.06
44349;BME280;30068;50.986;4.564;2023-07-13T01:57:17;101545.06;;;26.73;46.10
44349;BME280;30068;50.986;4.564;2023-07-13T01:59:42;101539.59;;;26.73;46.08
44349;BME280;30068;50.986;4.564;2023-07-13T02:02:07;101537.91;;;26.72;46.11
44349;BME280;30068;50.986;4.564;2023-07-13T02:04:32;101537.91;;;26.72;45.82
44349;BME280;30068;50.986;4.564;2023-07-13T02:06:58;101542.53;;;26.71;45.90
44349;BME280;30068;50.986;4.564;2023-07-13T02:09:23;101547.16;;;26.71;46.40
44349;BME280;30068;50.986;4.564;2023-07-13T02:11:48;101550.13;;;26.69;46.40
44349;BME280;30068;50.986;4.564;2023-07-13T02:14:13;101550.13;;;26.69;46.23
44349;BME280;30068;50.986;4.564;2023-07-13T02:16:40;101542.94;;;26.68;46.38
44349;BME280;30068;50.986;4.564;2023-07-13T02:19:05;101546.53;;;26.69;46.13
44349;BME280;30068;50.986;4.564;2023-07-13T02:21:31;101547.63;;;26.68;46.41
44349;BME280;30068;50.986;4.564;2023-07-13T02:23:56;101542.94;;;26.68;46.13
44349;BME280;30068;50.986;4.564;2023-07-13T02:26:22;101540.44;;;26.67;46.27
44349;BME280;30068;50.986;4.564;2023-07-13T02:28:47;101548.66;;;26.67;46.43
44349;BME280;30068;50.986;4.564;2023-07-13T02:31:13;101542.34;;;26.66;46.15
44349;BME280;30068;50.986;4.564;2023-07-13T02:33:39;101540.66;;;26.65;46.35
44349;BME280;30068;50.986;4.564;2023-07-13T02:36:04;101542.56;;;26.65;46.44
44349;BME280;30068;50.986;4.564;2023-07-13T02:38:31;101539.81;;;26.65;46.36
44349;BME280;30068;50.986;4.564;2023-07-13T02:40:58;101540.88;;;26.64;46.34
44349;BME280;30068;50.986;4.564;2023-07-13T02:43:23;101543.59;;;26.64;46.23
44349;BME280;30068;50.986;4.564;2023-07-13T02:45:49;101546.34;;;26.64;46.40
44349;BME280;30068;50.986;4.564;2023-07-13T02:48:14;101542.13;;;26.61;46.46
44349;BME280;30068;50.986;4.564;2023-07-13T02:50:39;101546.56;;;26.62;46.63
44349;BME280;30068;50.986;4.564;2023-07-13T02:53:05;101542.97;;;26.62;46.69
44349;BME280;30068;50.986;4.564;2023-07-13T02:55:30;101552.88;;;26.63;46.37
44349;BME280;30068;50.986;4.564;2023-07-13T02:57:55;101542.97;;;26.62;46.60
44349;BME280;30068;50.986;4.564;2023-07-13T03:00:20;101546.78;;;26.61;46.75
44349;BME280;30068;50.986;4.564;2023-07-13T03:02:46;101552.25;;;26.61;46.63
44349;BME280;30068;50.986;4.564;2023-07-13T03:05:11;101544.06;;;26.61;46.56
44349;BME280;30068;50.986;4.564;2023-07-13T03:07:37;101545.31;;;26.58;46.83
44349;BME280;30068;50.986;4.564;2023-07-13T03:10:03;101549.31;;;26.56;46.39
44349;BME280;30068;50.986;4.564;2023-07-13T03:12:28;101560.69;;;26.53;46.56
44349;BME280;30068;50.986;4.564;2023-07-13T03:14:54;101557.75;;;26.48;47.12
44349;BME280;30068;50.986;4.564;2023-07-13T03:17:19;101555.63;;;26.50;46.89
44349;BME280;30068;50.986;4.564;2023-07-13T03:19:44;101558.56;;;26.55;47.08
44349;BME280;30068;50.986;4.564;2023-07-13T03:22:10;101559.84;;;26.59;47.25
44349;BME280;30068;50.986;4.564;2023-07-13T03:24:35;101562.38;;;26.60;47.14
44349;BME280;30068;50.986;4.564;2023-07-13T03:27:03;101563.81;;;26.63;47.21
44349;BME280;30068;50.986;4.564;2023-07-13T03:29:28;101552.47;;;26.66;47.57
44349;BME280;30068;50.986;4.564;2023-07-13T03:31:54;101562.38;;;26.67;47.39
44349;BME280;30068;50.986;4.564;2023-07-13T03:34:19;101563.81;;;26.69;47.20
44349;BME280;30068;50.986;4.564;2023-07-13T03:36:44;101560.03;;;26.70;47.31
44349;BME280;30068;50.986;4.564;2023-07-13T03:39:09;101565.28;;;26.72;47.30
44349;BME280;30068;50.986;4.564;2023-07-13T03:41:35;101563.19;;;26.74;47.26
44349;BME280;30068;50.986;4.564;2023-07-13T03:44:00;101563.19;;;26.74;47.38
44349;BME280;30068;50.986;4.564;2023-07-13T03:46:25;101568.66;;;26.74;47.45
44349;BME280;30068;50.986;4.564;2023-07-13T03:48:51;101572.84;;;26.77;47.51
44349;BME280;30068;50.986;4.564;2023-07-13T03:51:16;101575.38;;;26.78;47.44
44349;BME280;30068;50.986;4.564;2023-07-13T03:53:42;101575.38;;;26.78;47.21
44349;BME280;30068;50.986;4.564;2023-07-13T03:56:08;101579.59;;;26.81;47.30
44349;BME280;30068;50.986;4.564;2023-07-13T03:58:35;101588.66;;;26.81;47.55
44349;BME280;30068;50.986;4.564;2023-07-13T04:01:01;101585.69;;;26.83;47.58
44349;BME280;30068;50.986;4.564;2023-07-13T04:03:27;101589.25;;;26.83;47.61
44349;BME280;30068;50.986;4.564;2023-07-13T04:05:56;101579.34;;;26.82;47.49
44349;BME280;30068;50.986;4.564;2023-07-13T04:08:35;101580.00;;;26.84;47.45
44349;BME280;30068;50.986;4.564;2023-07-13T04:11:00;101589.06;;;26.85;47.42
44349;BME280;30068;50.986;4.564;2023-07-13T04:13:26;101592.63;;;26.85;47.47
44349;BME280;30068;50.986;4.564;2023-07-13T04:15:52;101590.94;;;26.84;47.54
44349;BME280;30068;50.986;4.564;2023-07-13T04:18:17;101595.38;;;26.85;47.70
44349;BME280;30068;50.986;4.564;2023-07-13T04:20:43;101606.34;;;26.85;47.59
44349;BME280;30068;50.986;4.564;2023-07-13T04:23:08;101592.63;;;26.85;47.27
44349;BME280;30068;50.986;4.564;2023-07-13T04:25:34;101604.44;;;26.86;47.47
44349;BME280;30068;50.986;4.564;2023-07-13T04:27:59;101603.59;;;26.85;47.54
44349;BME280;30068;50.986;4.564;2023-07-13T04:30:24;101600.84;;;26.85;47.61
44349;BME280;30068;50.986;4.564;2023-07-13T04:32:50;101609.06;;;26.85;47.45
44349;BME280;30068;50.986;4.564;2023-07-13T04:35:16;101613.50;;;26.86;47.37
44349;BME280;30068;50.986;4.564;2023-07-13T04:37:42;101623.41;;;26.87;47.57
44349;BME280;30068;50.986;4.564;2023-07-13T04:40:07;101621.72;;;26.86;47.28
44349;BME280;30068;50.986;4.564;2023-07-13T04:42:37;101617.28;;;26.85;47.54
44349;BME280;30068;50.986;4.564;2023-07-13T04:45:02;101614.56;;;26.85;47.59
44349;BME280;30068;50.986;4.564;2023-07-13T04:47:29;101622.56;;;26.87;47.41
44349;BME280;30068;50.986;4.564;2023-07-13T04:49:57;101614.56;;;26.85;47.51
44349;BME280;30068;50.986;4.564;2023-07-13T04:52:22;101614.56;;;26.85;47.49
44349;BME280;30068;50.986;4.564;2023-07-13T04:54:48;101614.56;;;26.85;47.41
44349;BME280;30068;50.986;4.564;2023-07-13T04:57:13;101616.44;;;26.85;47.55
44349;BME280;30068;50.986;4.564;2023-07-13T04:59:38;101620.03;;;26.85;47.52
44349;BME280;30068;50.986;4.564;2023-07-13T05:02:03;101628.25;;;26.85;47.72
44349;BME280;30068;50.986;4.564;2023-07-13T05:04:28;101626.34;;;26.86;47.54
44349;BME280;30068;50.986;4.564;2023-07-13T05:06:54;101621.09;;;26.84;47.31
44349;BME280;30068;50.986;4.564;2023-07-13T05:09:19;101622.13;;;26.83;47.67
44349;BME280;30068;50.986;4.564;2023-07-13T05:11:44;101625.91;;;26.82;47.60
44349;BME280;30068;50.986;4.564;2023-07-13T05:14:09;101630.13;;;26.85;47.41
44349;BME280;30068;50.986;4.564;2023-07-13T05:16:35;101640.25;;;26.84;47.61
44349;BME280;30068;50.986;4.564;2023-07-13T05:19:00;101640.25;;;26.84;47.76
44349;BME280;30068;50.986;4.564;2023-07-13T05:21:25;101639.41;;;26.84;47.73
44349;BME280;30068;50.986;4.564;2023-07-13T05:23:51;101640.25;;;26.84;47.68
44349;BME280;30068;50.986;4.564;2023-07-13T05:26:16;101639.19;;;26.85;47.26
44349;BME280;30068;50.986;4.564;2023-07-13T05:28:42;101643.00;;;26.84;47.68
44349;BME280;30068;50.986;4.564;2023-07-13T05:31:08;101649.31;;;26.85;47.68
44349;BME280;30068;50.986;4.564;2023-07-13T05:33:33;101649.53;;;26.83;47.90
44349;BME280;30068;50.986;4.564;2023-07-13T05:35:59;101648.69;;;26.83;47.65
44349;BME280;30068;50.986;4.564;2023-07-13T05:38:25;101649.53;;;26.83;47.68
44349;BME280;30068;50.986;4.564;2023-07-13T05:40:51;101656.69;;;26.84;47.79
44349;BME280;30068;50.986;4.564;2023-07-13T05:43:16;101648.69;;;26.83;47.48
44349;BME280;30068;50.986;4.564;2023-07-13T05:45:41;101647.03;;;26.82;47.53
44349;BME280;30068;50.986;4.564;2023-07-13T05:48:06;101655.22;;;26.82;47.75
44349;BME280;30068;50.986;4.564;2023-07-13T05:50:32;101661.53;;;26.82;47.56
44349;BME280;30068;50.986;4.564;2023-07-13T05:52:57;101662.59;;;26.81;47.81
44349;BME280;30068;50.986;4.564;2023-07-13T05:55:22;101657.13;;;26.81;47.96
44349;BME280;30068;50.986;4.564;2023-07-13T05:57:48;101664.25;;;26.82;48.00
44349;BME280;30068;50.986;4.564;2023-07-13T06:00:13;101654.41;;;26.81;47.90
44349;BME280;30068;50.986;4.564;2023-07-13T06:02:38;101662.81;;;26.80;47.65
44349;BME280;30068;50.986;4.564;2023-07-13T06:05:04;101666.41;;;26.80;47.89
44349;BME280;30068;50.986;4.564;2023-07-13T06:07:29;101671.88;;;26.80;47.74
44349;BME280;30068;50.986;4.564;2023-07-13T06:09:55;101667.44;;;26.79;47.99
44349;BME280;30068;50.986;4.564;2023-07-13T06:12:20;101673.56;;;26.81;47.81
44349;BME280;30068;50.986;4.564;2023-07-13T06:14:46;101674.63;;;26.80;47.88
44349;BME280;30068;50.986;4.564;2023-07-13T06:17:11;101678.41;;;26.79;47.93
44349;BME280;30068;50.986;4.564;2023-07-13T06:19:36;101683.88;;;26.79;48.05
44349;BME280;30068;50.986;4.564;2023-07-13T06:22:01;101692.09;;;26.79;47.85
44349;BME280;30068;50.986;4.564;2023-07-13T06:24:26;101684.09;;;26.78;47.97
44349;BME280;30068;50.986;4.564;2023-07-13T06:26:52;101683.25;;;26.77;48.05
44349;BME280;30068;50.986;4.564;2023-07-13T06:29:17;101695.88;;;26.78;47.85
44349;BME280;30068;50.986;4.564;2023-07-13T06:31:42;101691.47;;;26.77;48.06
44349;BME280;30068;50.986;4.564;2023-07-13T06:34:07;101694.19;;;26.77;48.00
44349;BME280;30068;50.986;4.564;2023-07-13T06:36:32;101694.19;;;26.77;47.88
44349;BME280;30068;50.986;4.564;2023-07-13T06:38:58;101696.09;;;26.77;47.98
44349;BME280;30068;50.986;4.564;2023-07-13T06:41:23;101693.34;;;26.77;48.03
44349;BME280;30068;50.986;4.564;2023-07-13T06:43:51;101695.25;;;26.76;48.12
44349;BME280;30068;50.986;4.564;2023-07-13T06:46:16;101699.47;;;26.72;47.81
44349;BME280;30068;50.986;4.564;2023-07-13T06:48:41;101707.25;;;26.75;47.97
44349;BME280;30068;50.986;4.564;2023-07-13T06:51:06;101709.19;;;26.74;48.28
44349;BME280;30068;50.986;4.564;2023-07-13T06:53:32;101704.50;;;26.75;47.99
44349;BME280;30068;50.986;4.564;2023-07-13T06:55:57;101708.09;;;26.75;48.06
44349;BME280;30068;50.986;4.564;2023-07-13T06:58:22;101701.78;;;26.75;47.82
44349;BME280;30068;50.986;4.564;2023-07-13T07:00:49;101701.78;;;26.75;48.01
44349;BME280;30068;50.986;4.564;2023-07-13T07:03:15;101707.25;;;26.75;48.11
44349;BME280;30068;50.986;4.564;2023-07-13T07:05:40;101709.78;;;26.77;48.01
44349;BME280;30068;50.986;4.564;2023-07-13T07:08:05;101703.69;;;26.74;47.93
44349;BME280;30068;50.986;4.564;2023-07-13T07:10:31;101712.72;;;26.75;48.28
44349;BME280;30068;50.986;4.564;2023-07-13T07:12:57;101711.91;;;26.74;48.25
44349;BME280;30068;50.986;4.564;2023-07-13T07:15:22;101716.53;;;26.74;47.94
44349;BME280;30068;50.986;4.564;2023-07-13T07:17:47;101711.06;;;26.74;47.89
44349;BME280;30068;50.986;4.564;2023-07-13T07:20:13;101718.19;;;26.75;48.09
44349;BME280;30068;50.986;4.564;2023-07-13T07:22:38;101707.03;;;26.70;47.86
44349;BME280;30068;50.986;4.564;2023-07-13T07:25:03;101714.66;;;26.74;47.89
44349;BME280;30068;50.986;4.564;2023-07-13T07:27:28;101717.59;;;26.73;47.89
44349;BME280;30068;50.986;4.564;2023-07-13T07:29:54;101713.16;;;26.72;47.81
44349;BME280;30068;50.986;4.564;2023-07-13T07:32:19;101714.84;;;26.73;48.09
44349;BME280;30068;50.986;4.564;2023-07-13T07:34:44;101712.13;;;26.73;48.10
44349;BME280;30068;50.986;4.564;2023-07-13T07:37:11;101719.50;;;26.72;48.38
44349;BME280;30068;50.986;4.564;2023-07-13T07:39:36;101720.34;;;26.73;47.95
44349;BME280;30068;50.986;4.564;2023-07-13T07:42:03;101724.13;;;26.72;48.10
44349;BME280;30068;50.986;4.564;2023-07-13T07:44:28;101720.34;;;26.73;48.44
44349;BME280;30068;50.986;4.564;2023-07-13T07:46:53;101714.00;;;26.72;48.20
44349;BME280;30068;50.986;4.564;2023-07-13T07:49:19;101714.00;;;26.72;48.08
44349;BME280;30068;50.986;4.564;2023-07-13T07:51:44;101714.84;;;26.73;48.20
44349;BME280;30068;50.986;4.564;2023-07-13T07:54:09;101715.91;;;26.72;48.23
44349;BME280;30068;50.986;4.564;2023-07-13T07:56:35;101718.66;;;26.72;48.26
44349;BME280;30068;50.986;4.564;2023-07-13T07:59:00;101714.84;;;26.73;48.29
44349;BME280;30068;50.986;4.564;2023-07-13T08:01:25;101723.06;;;26.73;48.25
44349;BME280;30068;50.986;4.564;2023-07-13T08:03:50;101724.13;;;26.72;48.35
44349;BME280;30068;50.986;4.564;2023-07-13T08:06:16;101720.34;;;26.73;48.23
44349;BME280;30068;50.986;4.564;2023-07-13T08:08:41;101720.34;;;26.73;48.54
44349;BME280;30068;50.986;4.564;2023-07-13T08:11:07;101720.34;;;26.73;48.13
44349;BME280;30068;50.986;4.564;2023-07-13T08:13:33;101725.81;;;26.73;48.35
44349;BME280;30068;50.986;4.564;2023-07-13T08:15:58;101723.06;;;26.73;48.39
44349;BME280;30068;50.986;4.564;2023-07-13T08:18:23;101724.97;;;26.72;48.06
44349;BME280;30068;50.986;4.564;2023-07-13T08:20:49;101720.34;;;26.73;48.21
44349;BME280;30068;50.986;4.564;2023-07-13T08:23:14;101717.59;;;26.73;48.47
44349;BME280;30068;50.986;4.564;2023-07-13T08:25:41;101726.66;;;26.73;48.02
44349;BME280;30068;50.986;4.564;2023-07-13T08:28:07;101719.28;;;26.74;48.24
44349;BME280;30068;50.986;4.564;2023-07-13T08:30:32;101725.81;;;26.73;48.02
44349;BME280;30068;50.986;4.564;2023-07-13T08:32:57;101723.06;;;26.73;48.02
44349;BME280;30068;50.986;4.564;2023-07-13T08:35:22;101725.81;;;26.73;48.06
44349;BME280;30068;50.986;4.564;2023-07-13T08:37:47;101728.53;;;26.73;48.26
44349;BME280;30068;50.986;4.564;2023-07-13T08:40:13;101734.22;;;26.71;48.35
44349;BME280;30068;50.986;4.564;2023-07-13T08:50:42;101725.16;;;26.71;47.97
44349;BME280;30068;50.986;4.564;2023-07-13T08:53:10;101721.59;;;26.70;48.11
44349;BME280;30068;50.986;4.564;2023-07-13T08:55:37;101716.94;;;26.71;47.98
44349;BME280;30068;50.986;4.564;2023-07-13T08:58:13;101727.06;;;26.70;48.22
44349;BME280;30068;50.986;4.564;2023-07-13T09:03:30;101720.75;;;26.70;48.15
44349;BME280;30068;50.986;4.564;2023-07-13T09:06:02;101716.94;;;26.71;48.21
44349;BME280;30068;50.986;4.564;2023-07-13T09:11:01;101723.28;;;26.71;48.18
44349;BME280;30068;50.986;4.564;2023-07-13T09:15:55;101722.44;;;26.71;48.19
44349;BME280;30068;50.986;4.564;2023-07-13T09:20:49;101715.25;;;26.70;47.84
44349;BME280;30068;50.986;4.564;2023-07-13T09:23:17;101719.69;;;26.71;47.99
44349;BME280;30068;50.986;4.564;2023-07-13T09:25:45;101718.00;;;26.70;48.22
44349;BME280;30068;50.986;4.564;2023-07-13T09:28:17;101719.91;;;26.69;47.97
44349;BME280;30068;50.986;4.564;2023-07-13T09:33:08;101721.59;;;26.70;47.97
44349;BME280;30068;50.986;4.564;2023-07-13T09:35:34;101727.91;;;26.71;47.86
44349;BME280;30068;50.986;4.564;2023-07-13T09:38:17;101729.59;;;26.72;47.93
44349;BME280;30068;50.986;4.564;2023-07-13T09:40:53;101743.28;;;26.72;47.69
44349;BME280;30068;50.986;4.564;2023-07-13T09:43:21;101738.84;;;26.71;47.70
44349;BME280;30068;50.986;4.564;2023-07-13T09:45:47;101731.50;;;26.71;47.99
44349;BME280;30068;50.986;4.564;2023-07-13T09:48:13;101732.34;;;26.72;47.83
44349;BME280;30068;50.986;4.564;2023-07-13T09:50:39;101735.28;;;26.70;47.90
44349;BME280;30068;50.986;4.564;2023-07-13T09:53:04;101734.22;;;26.65;46.79
44349;BME280;30068;50.986;4.564;2023-07-13T09:55:37;101730.00;;;26.62;47.18
44349;BME280;30068;50.986;4.564;2023-07-13T09:58:08;101735.28;;;26.64;47.11
44349;BME280;30068;50.986;4.564;2023-07-13T10:00:35;101740.75;;;26.64;47.06
44349;BME280;30068;50.986;4.564;2023-07-13T10:03:02;101738.84;;;26.64;47.13
44349;BME280;30068;50.986;4.564;2023-07-13T10:05:28;101736.97;;;26.65;47.08
44349;BME280;30068;50.986;4.564;2023-07-13T10:08:01;101727.72;;;26.66;47.11
44349;BME280;30068;50.986;4.564;2023-07-13T10:10:27;101736.56;;;26.68;47.23
44349;BME280;30068;50.986;4.564;2023-07-13T10:12:52;101735.47;;;26.69;47.12
44349;BME280;30068;50.986;4.564;2023-07-13T10:15:19;101730.00;;;26.69;46.92
44349;BME280;30068;50.986;4.564;2023-07-13T10:17:44;101732.53;;;26.70;47.00
44349;BME280;30068;50.986;4.564;2023-07-13T10:20:10;101733.38;;;26.71;47.08
44349;BME280;30068;50.986;4.564;2023-07-13T10:22:46;101732.13;;;26.73;46.87
44349;BME280;30068;50.986;4.564;2023-07-13T10:25:20;101729.16;;;26.75;46.97
44349;BME280;30068;50.986;4.564;2023-07-13T10:27:46;101729.16;;;26.75;46.94
44349;BME280;30068;50.986;4.564;2023-07-13T10:30:14;101737.59;;;26.73;46.77
44349;BME280;30068;50.986;4.564;2023-07-13T10:32:40;101735.72;;;26.74;46.90
44349;BME280;30068;50.986;4.564;2023-07-13T10:35:07;101749.41;;;26.74;46.86
44349;BME280;30068;50.986;4.564;2023-07-13T10:40:16;101753.19;;;26.73;46.77
44349;BME280;30068;50.986;4.564;2023-07-13T10:42:45;101752.53;;;26.51;45.41
44349;BME280;30068;50.986;4.564;2023-07-13T10:45:15;101752.34;;;26.53;45.54
44349;BME280;30068;50.986;4.564;2023-07-13T10:47:41;101746.66;;;26.54;46.22
44349;BME280;30068;50.986;4.564;2023-07-13T10:50:08;101744.75;;;26.55;46.00
44349;BME280;30068;50.986;4.564;2023-07-13T10:52:46;101753.59;;;26.57;45.85
44349;BME280;30068;50.986;4.564;2023-07-13T10:57:55;101756.97;;;26.59;45.87
44349;BME280;30068;50.986;4.564;2023-07-13T11:00:24;101759.50;;;26.60;45.92
44349;BME280;30068;50.986;4.564;2023-07-13T11:02:56;101755.69;;;26.61;46.12
44349;BME280;30068;50.986;4.564;2023-07-13T11:05:26;101753.59;;;26.63;46.10
44349;BME280;30068;50.986;4.564;2023-07-13T11:08:02;101749.81;;;26.64;45.77
44349;BME280;30068;50.986;4.564;2023-07-13T11:10:48;101754.44;;;26.64;45.96
44349;BME280;30068;50.986;4.564;2023-07-13T11:15:58;101759.53;;;26.67;45.84
44349;BME280;30068;50.986;4.564;2023-07-13T11:18:24;101755.72;;;26.68;45.91
44349;BME280;30068;50.986;4.564;2023-07-13T11:20:50;101767.72;;;26.67;46.12
44349;BME280;30068;50.986;4.564;2023-07-13T11:25:41;101772.16;;;26.68;46.11
44349;BME280;30068;50.986;4.564;2023-07-13T11:33:07;101762.47;;;26.72;45.92
44349;BME280;30068;50.986;4.564;2023-07-13T11:35:38;101760.38;;;26.74;46.26
44349;BME280;30068;50.986;4.564;2023-07-13T11:38:16;101755.72;;;26.74;45.98
44349;BME280;30068;50.986;4.564;2023-07-13T11:40:44;101760.13;;;26.75;45.98
44349;BME280;30068;50.986;4.564;2023-07-13T11:43:12;101746.22;;;26.77;46.03
44349;BME280;30068;50.986;4.564;2023-07-13T11:45:38;101748.75;;;26.79;46.04
44349;BME280;30068;50.986;4.564;2023-07-13T11:48:03;101759.53;;;26.80;45.96
44349;BME280;30068;50.986;4.564;2023-07-13T11:50:29;101757.81;;;26.79;46.14
44349;BME280;30068;50.986;4.564;2023-07-13T11:52:54;101755.94;;;26.80;45.83
44349;BME280;30068;50.986;4.564;2023-07-13T11:55:21;101765.00;;;26.80;45.90
44349;BME280;30068;50.986;4.564;2023-07-13T11:57:54;101756.78;;;26.80;46.05
44349;BME280;30068;50.986;4.564;2023-07-13T12:00:22;101755.72;;;26.81;46.14
44349;BME280;30068;50.986;4.564;2023-07-13T12:02:49;101763.09;;;26.81;45.92
44349;BME280;30068;50.986;4.564;2023-07-13T12:05:16;101763.09;;;26.81;46.15
44349;BME280;30068;50.986;4.564;2023-07-13T12:07:42;101776.78;;;26.81;46.05
44349;BME280;30068;50.986;4.564;2023-07-13T12:10:16;101797.03;;;26.80;45.92
44349;BME280;30068;50.986;4.564;2023-07-13T12:12:50;101833.88;;;26.77;46.18
44349;BME280;30068;50.986;4.564;2023-07-13T12:15:16;101846.72;;;26.77;46.22
44349;BME280;30068;50.986;4.564;2023-07-13T12:17:41;101849.66;;;26.75;46.11
44349;BME280;30068;50.986;4.564;2023-07-13T12:20:19;101854.31;;;26.74;46.58
44349;BME280;30068;50.986;4.564;2023-07-13T12:22:45;101860.63;;;26.75;46.52
44349;BME280;30068;50.986;4.564;2023-07-13T12:25:11;101854.31;;;26.74;46.64
44349;BME280;30068;50.986;4.564;2023-07-13T12:27:37;101857.06;;;26.74;46.51
44349;BME280;30068;50.986;4.564;2023-07-13T12:30:04;101863.59;;;26.73;46.77
44349;BME280;30068;50.986;4.564;2023-07-13T12:32:30;101858.97;;;26.74;46.77
44349;BME280;30068;50.986;4.564;2023-07-13T12:35:02;101858.13;;;26.73;47.02
44349;BME280;30068;50.986;4.564;2023-07-13T12:37:34;101857.25;;;26.73;47.26
44349;BME280;30068;50.986;4.564;2023-07-13T12:40:00;101847.16;;;26.73;47.12
44349;BME280;30068;50.986;4.564;2023-07-13T12:42:27;101852.84;;;26.72;47.12
44349;BME280;30068;50.986;4.564;2023-07-13T12:44:58;101855.56;;;26.72;47.29
44349;BME280;30068;50.986;4.564;2023-07-13T12:47:25;101850.25;;;26.51;47.76
44349;BME280;30068;50.986;4.564;2023-07-13T12:49:54;101848.97;;;25.99;49.76
44349;BME280;30068;50.986;4.564;2023-07-13T12:52:21;101838.53;;;25.75;49.47
44349;BME280;30068;50.986;4.564;2023-07-13T12:54:54;101838.13;;;25.50;51.13
44349;BME280;30068;50.986;4.564;2023-07-13T12:57:22;101835.50;;;25.35;51.37
44349;BME280;30068;50.986;4.564;2023-07-13T12:59:47;101842.38;;;25.25;51.94
44349;BME280;30068;50.986;4.564;2023-07-13T13:02:38;101838.53;;;24.98;52.50
44349;BME280;30068;50.986;4.564;2023-07-13T13:05:03;101841.56;;;24.88;53.20
44349;BME280;30068;50.986;4.564;2023-07-13T13:07:30;101835.81;;;24.76;53.39
44349;BME280;30068;50.986;4.564;2023-07-13T13:09:55;101838.25;;;24.71;54.13
44349;BME280;30068;50.986;4.564;2023-07-13T13:12:21;101840.66;;;24.60;55.51
44349;BME280;30068;50.986;4.564;2023-07-13T13:14:47;101832.66;;;24.58;55.57
44349;BME280;30068;50.986;4.564;2023-07-13T13:17:20;101841.94;;;24.43;55.96
44349;BME280;30068;50.986;4.564;2023-07-13T13:19:46;101828.59;;;24.33;55.24
44349;BME280;30068;50.986;4.564;2023-07-13T13:22:12;101832.09;;;24.12;55.32